createdAt,value
2023-01-17T00:00:45.734Z,55.67
2023-01-17T00:03:20.583Z,57.72
2023-01-17T00:05:48.496Z,75.03
2023-01-17T00:08:22.812Z,71.97
2023-01-17T00:10:49.846Z,59.67
2023-01-17T00:13:23.138Z,56.88
2023-01-17T00:15:56.548Z,57.85
2023-01-17T00:18:31.659Z,56.88
2023-01-17T00:20:58.928Z,52.58
2023-01-17T00:23:33.197Z,54.08
2023-01-17T00:26:07.873Z,65.53
2023-01-17T00:28:39.898Z,58.35
2023-01-17T00:31:15.221Z,65.63
2023-01-17T00:33:42.176Z,70.32
2023-01-17T00:36:16.648Z,68.57
2023-01-17T00:38:43.516Z,69.57
2023-01-17T00:41:16.095Z,66.63
2023-01-17T00:43:50.164Z,66.40
2023-01-17T00:46:17.958Z,59.47
2023-01-17T00:48:44.989Z,54.33
2023-01-17T00:51:18.149Z,62.53
2023-01-17T00:53:45.140Z,79.13
2023-01-17T00:56:18.188Z,72.18
2023-01-17T00:58:51.137Z,63.60
2023-01-17T01:01:18.114Z,66.28
2023-01-17T01:03:51.161Z,68.35
2023-01-17T01:06:18.096Z,78.43
2023-01-17T01:08:51.189Z,87.43
2023-01-17T01:11:20.105Z,93.88
2023-01-17T01:13:53.173Z,94.90
2023-01-17T01:16:26.915Z,117.10
2023-01-17T01:19:00.185Z,92.57
2023-01-17T01:21:27.084Z,83.68
2023-01-17T01:24:00.227Z,73.90
2023-01-17T01:26:27.093Z,74.40
2023-01-17T01:28:54.014Z,72.35
2023-01-17T01:31:27.176Z,56.20
2023-01-17T01:33:54.126Z,50.72
2023-01-17T01:36:27.246Z,60.75
2023-01-17T01:38:54.204Z,60.30
2023-01-17T01:41:27.201Z,53.13
2023-01-17T01:43:55.119Z,55.97
2023-01-17T01:46:31.236Z,56.97
2023-01-17T01:49:01.305Z,60.70
2023-01-17T01:51:41.252Z,56.55
2023-01-17T01:54:15.440Z,49.55
2023-01-17T01:56:54.381Z,46.67
2023-01-17T01:59:34.244Z,46.65
2023-01-17T02:02:01.089Z,44.45
2023-01-17T02:04:34.203Z,47.33
2023-01-17T02:07:18.783Z,46.67
2023-01-17T02:09:52.243Z,47.22
2023-01-17T02:12:19.316Z,49.38
2023-01-17T02:14:53.279Z,45.88
2023-01-17T02:17:49.492Z,48.60
2023-01-17T02:21:04.236Z,45.65
2023-01-17T02:23:42.860Z,48.55
2023-01-17T02:26:56.208Z,48.38
2023-01-17T02:29:57.122Z,46.47
2023-01-17T02:33:00.238Z,46.47
2023-01-17T02:36:06.995Z,52.72
2023-01-17T02:38:59.290Z,45.50
2023-01-17T02:41:38.765Z,48.42
2023-01-17T02:44:13.234Z,45.90
2023-01-17T02:46:55.722Z,45.72
2023-01-17T02:49:35.308Z,45.60
2023-01-17T02:52:36.982Z,43.65
2023-01-17T02:55:54.279Z,44.85
2023-01-17T02:58:55.170Z,46.45
2023-01-17T03:01:59.402Z,44.13
2023-01-17T03:04:51.205Z,45.42
2023-01-17T03:07:31.260Z,47.60
2023-01-17T03:10:00.348Z,47.42
2023-01-17T03:12:30.432Z,47.53
2023-01-17T03:15:04.240Z,45.05
2023-01-17T03:17:32.854Z,49.83
2023-01-17T03:20:06.233Z,49.83
2023-01-17T03:22:33.105Z,49.92
2023-01-17T03:25:06.258Z,46.83
2023-01-17T03:27:33.144Z,49.92
2023-01-17T03:30:06.212Z,47.75
2023-01-17T03:32:33.084Z,53.30
2023-01-17T03:35:06.256Z,49.22
2023-01-17T03:37:33.182Z,52.95
2023-01-17T03:40:06.276Z,50.55
2023-01-17T03:42:39.398Z,48.25
2023-01-17T03:45:06.815Z,52.92
2023-01-17T03:47:42.243Z,55.58
2023-01-17T03:50:10.198Z,52.55
2023-01-17T03:52:43.365Z,48.13
2023-01-17T03:55:10.417Z,56.13
2023-01-17T03:57:44.300Z,53.22
2023-01-17T04:00:18.245Z,54.55
2023-01-17T04:02:45.140Z,61.97
2023-01-17T04:05:18.301Z,61.03
2023-01-17T04:07:45.205Z,59.22
2023-01-17T04:10:18.248Z,55.00
2023-01-17T04:12:45.136Z,59.00
2023-01-17T04:15:18.231Z,55.15
2023-01-17T04:17:45.120Z,50.75
2023-01-17T04:20:42.257Z,62.28
2023-01-17T04:23:15.289Z,55.95
2023-01-17T04:25:42.235Z,57.03
2023-01-17T04:28:09.809Z,52.83
2023-01-17T04:30:43.278Z,51.50
2023-01-17T04:33:10.135Z,53.33
2023-01-17T04:35:43.250Z,54.42
2023-01-17T04:38:10.137Z,58.90
2023-01-17T04:40:43.278Z,51.70
2023-01-17T04:43:10.165Z,59.55
2023-01-17T04:45:43.272Z,60.10
2023-01-17T04:48:10.380Z,53.15
2023-01-17T04:50:37.263Z,52.25
2023-01-17T04:53:10.272Z,54.80
2023-01-17T04:55:37.127Z,53.45
2023-01-17T04:58:04.111Z,49.05
2023-01-17T05:00:37.296Z,53.25
2023-01-17T05:03:04.178Z,51.83
2023-01-17T05:05:37.317Z,50.92
2023-01-17T05:08:04.383Z,55.33
2023-01-17T05:10:31.295Z,52.70
2023-01-17T05:13:06.341Z,56.00
2023-01-17T05:15:33.314Z,48.50
2023-01-17T05:18:00.202Z,53.78
2023-01-17T05:20:33.265Z,57.50
2023-01-17T05:23:00.177Z,51.85
2023-01-17T05:25:35.290Z,53.67
2023-01-17T05:28:09.343Z,55.45
2023-01-17T05:30:36.224Z,52.17
2023-01-17T05:33:10.340Z,54.35
2023-01-17T05:35:37.392Z,51.13
2023-01-17T05:38:04.347Z,50.30
2023-01-17T05:40:39.270Z,52.35
2023-01-17T05:43:06.129Z,46.95
2023-01-17T05:45:40.289Z,53.72
2023-01-17T05:48:14.263Z,49.53
2023-01-17T05:50:41.216Z,54.03
2023-01-17T05:53:11.108Z,53.15
2023-01-17T05:55:44.301Z,54.53
2023-01-17T05:58:17.706Z,53.30
2023-01-17T06:00:51.322Z,54.75
2023-01-17T06:03:18.240Z,58.35
2023-01-17T06:05:51.335Z,53.45
2023-01-17T06:08:18.260Z,51.13
2023-01-17T06:10:45.245Z,54.03
2023-01-17T06:13:20.363Z,58.53
2023-01-17T06:15:47.527Z,54.03
2023-01-17T06:18:23.370Z,55.88
2023-01-17T06:20:53.453Z,52.90
2023-01-17T06:23:27.310Z,51.38
2023-01-17T06:25:54.246Z,52.70
2023-01-17T06:28:29.343Z,54.45
2023-01-17T06:30:56.332Z,49.35
2023-01-17T06:33:23.358Z,53.50
2023-01-17T06:35:57.304Z,52.60
2023-01-17T06:38:30.290Z,57.78
2023-01-17T06:40:57.205Z,54.67
2023-01-17T06:43:30.315Z,52.88
2023-01-17T06:46:03.976Z,56.22
2023-01-17T06:48:37.297Z,54.75
2023-01-17T06:51:04.270Z,56.45
2023-01-17T06:53:37.421Z,53.55
2023-01-17T06:56:04.623Z,52.28
2023-01-17T06:58:38.353Z,54.20
2023-01-17T07:01:12.443Z,59.15
2023-01-17T07:03:46.763Z,53.15
2023-01-17T07:06:13.702Z,59.75
2023-01-17T07:08:40.671Z,56.85
2023-01-17T07:11:14.364Z,56.67
2023-01-17T07:13:48.701Z,58.53
2023-01-17T07:16:22.467Z,57.72
2023-01-17T07:18:49.462Z,58.08
2023-01-17T07:21:23.387Z,75.50
2023-01-17T07:23:50.534Z,70.00
2023-01-17T07:26:24.324Z,60.30
2023-01-17T07:28:51.356Z,55.85
2023-01-17T07:31:24.448Z,59.03
2023-01-17T07:33:51.492Z,53.50
2023-01-17T07:36:18.404Z,61.13
2023-01-17T07:38:53.358Z,57.03
2023-01-17T07:41:20.347Z,60.88
2023-01-17T07:43:55.489Z,55.22
2023-01-17T07:46:23.323Z,52.20
2023-01-17T07:48:56.388Z,55.70
2023-01-17T07:51:23.293Z,54.15
2023-01-17T07:53:50.287Z,49.42
2023-01-17T07:56:23.360Z,58.80
2023-01-17T07:58:50.303Z,57.83
2023-01-17T08:01:24.596Z,65.88
2023-01-17T08:03:51.803Z,60.55
2023-01-17T08:06:31.445Z,63.28
2023-01-17T08:08:58.369Z,56.03
2023-01-17T08:11:25.757Z,57.13
2023-01-17T08:13:59.416Z,59.35
2023-01-17T08:16:33.431Z,61.60
2023-01-17T08:19:00.368Z,52.30
2023-01-17T08:21:34.347Z,52.47
2023-01-17T08:24:01.376Z,52.38
2023-01-17T08:26:28.303Z,53.28
2023-01-17T08:29:05.389Z,57.78
2023-01-17T08:31:33.963Z,52.40
2023-01-17T08:34:07.341Z,55.55
2023-01-17T08:36:34.295Z,62.80
2023-01-17T08:39:01.258Z,55.58
2023-01-17T08:41:34.429Z,56.88
2023-01-17T08:44:01.655Z,55.33
2023-01-17T08:46:35.429Z,52.45
2023-01-17T08:49:02.483Z,54.55
2023-01-17T08:51:36.375Z,64.32
2023-01-17T08:54:03.357Z,57.63
2023-01-17T08:56:36.375Z,59.10
2023-01-17T08:59:03.312Z,63.10
2023-01-17T09:01:36.476Z,57.42
2023-01-17T09:04:03.475Z,54.20
2023-01-17T09:06:37.364Z,60.33
2023-01-17T09:09:04.922Z,55.95
2023-01-17T09:11:38.437Z,53.85
2023-01-17T09:14:05.413Z,57.40
2023-01-17T09:16:39.407Z,61.17
2023-01-17T09:19:12.400Z,77.40
2023-01-17T09:21:39.839Z,75.60
2023-01-17T09:24:13.436Z,66.65
2023-01-17T09:26:46.378Z,58.60
2023-01-17T09:29:13.551Z,63.45
2023-01-17T09:31:40.511Z,54.60
2023-01-17T09:34:13.425Z,57.25
2023-01-17T09:36:48.369Z,61.15
2023-01-17T09:39:21.411Z,53.72
2023-01-17T09:42:18.350Z,53.00
2023-01-17T09:44:56.423Z,53.05
2023-01-17T09:47:52.466Z,51.75
2023-01-17T09:50:44.420Z,51.28
2023-01-17T09:53:23.481Z,52.30
2023-01-17T09:56:06.418Z,58.83
2023-01-17T09:58:48.453Z,51.33
2023-01-17T10:01:43.576Z,54.17
2023-01-17T10:04:53.616Z,52.15
2023-01-17T10:07:42.460Z,50.88
2023-01-17T10:10:53.453Z,56.33
2023-01-17T10:13:49.130Z,52.13
2023-01-17T10:16:34.442Z,50.80
2023-01-17T10:19:46.391Z,49.53
2023-01-17T10:22:16.236Z,52.95
2023-01-17T10:24:52.402Z,50.28
2023-01-17T10:27:59.145Z,51.38
2023-01-17T10:30:44.480Z,55.53
2023-01-17T10:33:32.427Z,55.53
2023-01-17T10:36:22.988Z,54.83
2023-01-17T10:39:02.396Z,54.35
2023-01-17T10:41:44.409Z,55.67
2023-01-17T10:44:20.303Z,56.28
2023-01-17T10:47:18.414Z,51.88
2023-01-17T10:49:51.638Z,51.03
2023-01-17T10:52:43.483Z,50.88
2023-01-17T10:55:59.570Z,57.75
2023-01-17T10:58:33.403Z,53.28
2023-01-17T11:01:33.523Z,56.78
2023-01-17T11:04:00.531Z,58.38
2023-01-17T11:06:34.409Z,58.47
2023-01-17T11:09:01.565Z,53.17
2023-01-17T11:11:32.022Z,61.63
2023-01-17T11:14:12.421Z,52.42
2023-01-17T11:16:45.491Z,58.50
2023-01-17T11:19:38.391Z,51.22
2023-01-17T11:22:13.444Z,57.92
2023-01-17T11:25:01.489Z,54.58
2023-01-17T11:27:31.184Z,51.78
2023-01-17T11:30:14.499Z,49.78
2023-01-17T11:33:02.452Z,55.05
2023-01-17T11:35:43.551Z,53.65
2023-01-17T11:38:20.513Z,50.80
2023-01-17T11:40:55.454Z,50.17
2023-01-17T11:43:26.889Z,44.85
2023-01-17T11:46:22.508Z,48.05
2023-01-17T11:48:56.323Z,44.05
2023-01-17T11:51:40.465Z,40.53
2023-01-17T11:54:21.535Z,40.22
2023-01-17T11:56:54.497Z,39.40
2023-01-17T11:59:33.665Z,38.60
2023-01-17T12:02:53.451Z,37.65
2023-01-17T12:05:43.235Z,34.13
2023-01-17T12:08:22.503Z,40.67
2023-01-17T12:11:11.459Z,40.75
2023-01-17T12:14:09.473Z,40.83
2023-01-17T12:17:12.025Z,36.90
2023-01-17T12:20:07.551Z,38.25
2023-01-17T12:23:10.535Z,40.35
2023-01-17T12:26:27.456Z,37.63
2023-01-17T12:29:22.476Z,38.65
2023-01-17T12:32:30.489Z,39.28
2023-01-17T12:35:23.890Z,39.70
2023-01-17T12:38:05.254Z,33.70
2023-01-17T12:40:46.477Z,31.65
2023-01-17T12:43:38.536Z,33.13
2023-01-17T12:46:18.552Z,28.85
2023-01-17T12:48:51.477Z,28.48
2023-01-17T12:51:39.578Z,29.50
2023-01-17T12:54:52.538Z,30.80
2023-01-17T12:57:31.503Z,29.40
2023-01-17T13:00:17.736Z,29.98
2023-01-17T13:03:00.519Z,31.55
2023-01-17T13:05:46.498Z,35.78
2023-01-17T13:08:50.510Z,31.30
2023-01-17T13:11:22.660Z,33.15
2023-01-17T13:13:49.806Z,34.28
2023-01-17T13:16:56.512Z,35.25
2023-01-17T13:19:51.519Z,37.25
2023-01-17T13:22:20.951Z,31.33
2023-01-17T13:24:58.507Z,31.90
2023-01-17T13:27:40.541Z,33.70
2023-01-17T13:30:36.070Z,30.85
2023-01-17T13:33:50.498Z,30.42
2023-01-17T13:36:48.228Z,25.35
2023-01-17T13:40:05.608Z,31.55
2023-01-17T13:42:59.618Z,27.30
2023-01-17T13:46:06.623Z,32.50
2023-01-17T13:48:34.964Z,28.80
2023-01-17T13:51:15.572Z,30.98
2023-01-17T13:53:42.402Z,30.80
2023-01-17T13:56:35.538Z,30.75
2023-01-17T13:59:02.917Z,44.03
2023-01-17T14:01:39.703Z,48.22
2023-01-17T14:04:14.525Z,56.47
2023-01-17T14:06:46.977Z,50.97
2023-01-17T14:09:24.537Z,45.75
2023-01-17T14:12:16.833Z,44.92
2023-01-17T14:14:55.550Z,47.20
2023-01-17T14:17:22.496Z,41.42
2023-01-17T14:19:59.523Z,41.10
2023-01-17T14:22:39.122Z,44.67
2023-01-17T14:25:18.587Z,41.38
2023-01-17T14:27:54.809Z,38.42
2023-01-17T14:30:38.506Z,35.25
2023-01-17T14:33:16.781Z,36.80
2023-01-17T14:36:03.560Z,34.17
2023-01-17T14:38:32.303Z,30.42
2023-01-17T14:41:12.590Z,32.47
2023-01-17T14:43:41.896Z,30.40
2023-01-17T14:46:33.666Z,26.80
2023-01-17T14:49:02.864Z,28.05
2023-01-17T14:51:36.556Z,29.60
2023-01-17T14:54:04.569Z,33.90
2023-01-17T14:56:38.667Z,32.47
2023-01-17T14:59:17.340Z,28.88
2023-01-17T15:02:06.275Z,27.60
2023-01-17T15:04:34.003Z,24.73
2023-01-17T15:07:07.718Z,30.48
2023-01-17T15:09:37.888Z,27.75
2023-01-17T15:12:11.581Z,27.98
2023-01-17T15:14:48.556Z,26.00
2023-01-17T15:17:26.621Z,27.02
2023-01-17T15:20:01.198Z,29.75
2023-01-17T15:22:34.608Z,25.60
2023-01-17T15:25:01.582Z,25.73
2023-01-17T15:27:35.580Z,24.55
2023-01-17T15:30:02.732Z,26.55
2023-01-17T15:32:36.609Z,21.67
2023-01-17T15:35:22.588Z,26.90
2023-01-17T15:37:53.311Z,24.55
2023-01-17T15:40:31.590Z,25.67
2023-01-17T15:42:59.613Z,21.70
2023-01-17T15:45:38.725Z,22.63
2023-01-17T15:48:38.008Z,20.85
2023-01-17T15:51:11.769Z,26.83
2023-01-17T15:53:41.410Z,24.73
2023-01-17T15:56:38.618Z,22.48
2023-01-17T16:00:07.703Z,23.85
2023-01-17T16:02:46.615Z,24.08
2023-01-17T16:05:55.583Z,23.20
2023-01-17T16:08:43.579Z,23.98
2023-01-17T16:11:11.273Z,26.45
2023-01-17T16:13:44.620Z,23.35
2023-01-17T16:16:20.871Z,31.38
2023-01-17T16:18:54.601Z,29.48
2023-01-17T16:21:34.640Z,36.35
2023-01-17T16:24:08.853Z,40.65
2023-01-17T16:26:36.030Z,33.40
2023-01-17T16:29:09.651Z,35.97
2023-01-17T16:31:36.712Z,50.55
2023-01-17T16:34:05.589Z,36.80
2023-01-17T16:36:38.683Z,26.67
2023-01-17T16:39:12.770Z,25.63
2023-01-17T16:41:46.686Z,24.90
2023-01-17T16:44:13.703Z,28.60
2023-01-17T16:46:47.631Z,28.65
2023-01-17T16:49:14.636Z,21.27
2023-01-17T16:51:47.638Z,18.50
2023-01-17T16:54:14.952Z,20.60
2023-01-17T16:56:42.035Z,19.85
2023-01-17T16:59:15.736Z,20.15
2023-01-17T17:01:42.786Z,19.40
2023-01-17T17:04:18.593Z,17.02
2023-01-17T17:06:45.871Z,16.85
2023-01-17T17:09:19.639Z,16.45
2023-01-17T17:11:52.591Z,16.10
2023-01-17T17:14:25.694Z,16.02
2023-01-17T17:16:52.915Z,16.70
2023-01-17T17:19:29.790Z,17.75
2023-01-17T17:22:00.663Z,15.50
2023-01-17T17:24:34.807Z,17.88
2023-01-17T17:27:01.954Z,18.20
2023-01-17T17:29:29.129Z,19.20
2023-01-17T17:32:02.660Z,19.15
2023-01-17T17:34:29.758Z,19.42
2023-01-17T17:37:03.889Z,17.70
2023-01-17T17:39:37.724Z,17.35
2023-01-17T17:42:04.935Z,18.20
2023-01-17T17:44:38.675Z,17.70
2023-01-17T17:47:11.676Z,21.83
2023-01-17T17:49:39.332Z,15.77
2023-01-17T17:52:13.645Z,15.63
2023-01-17T17:54:46.686Z,15.90
2023-01-17T17:57:13.596Z,17.25
2023-01-17T17:59:40.500Z,15.60
2023-01-17T18:02:13.725Z,15.00
2023-01-17T18:04:40.676Z,17.15
2023-01-17T18:07:07.587Z,16.60
2023-01-17T18:09:40.668Z,16.80
2023-01-17T18:12:14.654Z,13.95
2023-01-17T18:14:41.599Z,17.73
2023-01-17T18:17:14.620Z,31.70
2023-01-17T18:19:47.635Z,22.98
2023-01-17T18:22:20.644Z,16.92
2023-01-17T18:24:47.567Z,18.15
2023-01-17T18:27:20.681Z,15.45
2023-01-17T18:29:53.671Z,14.65
2023-01-17T18:32:26.654Z,17.45
2023-01-17T18:34:53.636Z,17.55
2023-01-17T18:37:26.613Z,13.55
2023-01-17T18:39:53.553Z,12.70
2023-01-17T18:42:26.677Z,14.40
2023-01-17T18:44:53.591Z,13.35
2023-01-17T18:47:26.696Z,14.18
2023-01-17T18:49:59.696Z,15.23
2023-01-17T18:52:26.600Z,14.15
2023-01-17T18:54:53.435Z,15.32
2023-01-17T18:57:26.639Z,15.75
2023-01-17T18:59:59.705Z,13.30
2023-01-17T19:02:26.559Z,12.40
2023-01-17T19:04:53.629Z,15.77
2023-01-17T19:07:26.693Z,14.45
2023-01-17T19:09:53.613Z,11.68
2023-01-17T19:12:26.682Z,15.02
2023-01-17T19:14:53.614Z,15.65
2023-01-17T19:17:20.539Z,14.85
2023-01-17T19:19:57.030Z,14.23
2023-01-17T19:22:24.100Z,11.75
2023-01-17T19:24:57.721Z,14.40
2023-01-17T19:27:37.684Z,11.35
2023-01-17T19:30:11.664Z,11.25
2023-01-17T19:32:38.573Z,9.68
2023-01-17T19:35:12.671Z,10.77
2023-01-17T19:37:43.642Z,11.63
2023-01-17T19:40:17.731Z,11.07
2023-01-17T19:42:51.697Z,10.98
2023-01-17T19:45:24.709Z,10.55
2023-01-17T19:47:57.969Z,13.48
2023-01-17T19:50:24.963Z,13.90
2023-01-17T19:52:58.703Z,11.57
2023-01-17T19:55:25.720Z,12.30
2023-01-17T19:57:52.638Z,13.60
2023-01-17T20:00:30.223Z,10.50
2023-01-17T20:03:03.792Z,12.00
2023-01-17T20:05:30.693Z,10.52
2023-01-17T20:08:03.650Z,11.70
2023-01-17T20:10:30.590Z,8.73
2023-01-17T20:13:03.976Z,8.93
2023-01-17T20:15:37.927Z,10.38
2023-01-17T20:18:04.959Z,9.77
2023-01-17T20:20:56.128Z,9.50
2023-01-17T20:23:23.845Z,10.90
2023-01-17T20:26:00.778Z,9.93
2023-01-17T20:28:28.888Z,8.48
2023-01-17T20:30:55.970Z,9.57
2023-01-17T20:33:30.688Z,10.23
2023-01-17T20:36:11.409Z,11.02
2023-01-17T20:38:38.735Z,11.00
2023-01-17T20:41:12.703Z,12.77
2023-01-17T20:43:42.650Z,13.50
2023-01-17T20:46:09.932Z,16.88
2023-01-17T20:48:43.829Z,15.98
2023-01-17T20:51:17.728Z,29.10
2023-01-17T20:53:45.582Z,18.92
2023-01-17T20:56:20.776Z,16.95
2023-01-17T20:58:49.573Z,15.52
2023-01-17T21:01:24.849Z,12.30
2023-01-17T21:03:52.328Z,12.15
2023-01-17T21:06:26.765Z,11.90
2023-01-17T21:08:53.763Z,9.98
2023-01-17T21:11:31.794Z,10.80
2023-01-17T21:13:58.693Z,11.82
2023-01-17T21:16:31.744Z,12.10
2023-01-17T21:18:58.727Z,10.95
2023-01-17T21:21:33.750Z,11.40
2023-01-17T21:24:00.717Z,12.55
2023-01-17T21:26:34.822Z,16.45
2023-01-17T21:29:01.809Z,14.02
2023-01-17T21:31:30.260Z,17.40
2023-01-17T21:34:08.729Z,18.98
2023-01-17T21:36:46.714Z,17.42
2023-01-17T21:39:24.895Z,14.77
2023-01-17T21:41:58.849Z,14.18
2023-01-17T21:44:25.989Z,15.32
2023-01-17T21:46:55.974Z,15.35
2023-01-17T21:49:29.744Z,28.67
2023-01-17T21:51:56.744Z,40.28
2023-01-17T21:54:34.742Z,55.70
2023-01-17T21:57:01.757Z,44.85
2023-01-17T21:59:31.253Z,42.70
2023-01-17T22:02:04.828Z,49.70
2023-01-17T22:04:38.737Z,52.63
2023-01-17T22:07:11.806Z,50.03
2023-01-17T22:09:38.805Z,48.92
2023-01-17T22:12:12.797Z,53.67
2023-01-17T22:14:39.792Z,61.97
2023-01-17T22:17:12.773Z,69.57
2023-01-17T22:19:39.655Z,71.97
2023-01-17T22:22:12.782Z,66.85
2023-01-17T22:24:39.823Z,56.70
2023-01-17T22:27:07.043Z,29.77
2023-01-17T22:29:40.773Z,18.02
2023-01-17T22:32:07.697Z,14.63
2023-01-17T22:34:34.591Z,13.45
2023-01-17T22:37:08.825Z,10.88
2023-01-17T22:39:42.761Z,11.20
2023-01-17T22:42:09.673Z,10.20
2023-01-17T22:44:42.850Z,12.73
2023-01-17T22:47:15.783Z,13.63
2023-01-17T22:49:49.816Z,21.20
2023-01-17T22:52:17.306Z,21.67
2023-01-17T22:54:50.875Z,18.83
2023-01-17T22:57:24.786Z,14.52
2023-01-17T22:59:51.827Z,14.30
2023-01-17T23:02:25.835Z,11.65
2023-01-17T23:04:52.869Z,10.40
2023-01-17T23:07:25.835Z,12.60
2023-01-17T23:09:52.688Z,11.13
2023-01-17T23:12:19.684Z,13.07
2023-01-17T23:14:52.796Z,20.65
2023-01-17T23:17:23.849Z,21.33
2023-01-17T23:19:59.798Z,13.82
2023-01-17T23:22:35.788Z,11.30
2023-01-17T23:25:17.804Z,12.32
2023-01-17T23:27:46.537Z,13.68
2023-01-17T23:30:47.808Z,11.05
2023-01-17T23:33:21.904Z,11.30
2023-01-17T23:35:49.155Z,11.35
2023-01-17T23:38:24.805Z,12.40
2023-01-17T23:40:53.107Z,12.95
2023-01-17T23:43:27.121Z,15.02
2023-01-17T23:45:54.448Z,14.93
2023-01-17T23:48:29.458Z,16.25
2023-01-17T23:51:03.368Z,17.95
2023-01-17T23:53:37.406Z,13.98
2023-01-17T23:56:17.230Z,13.40
2023-01-17T23:58:50.809Z,13.60
